Time;durP1;ratioP1;P1;durP2;ratioP2;P2;SDS_P1;SDS_P2;PMS_P1;PMS_P2;Temp;Humidity;BMP_temperature;BMP_pressure;BME280_temperature;BME280_humidity;BME280_pressure;Samples;Min_cycle;Max_cycle;Signal;HPM_P1;HPM_P2
2024/03/18 00:02:03;;;;;;;9.00;5.35;;;;;;;;;;5073405;28;20501;-72
2024/03/18 00:04:29;;;;;;;10.70;6.50;;;;;;;;;;5055862;28;20036;-72
2024/03/18 00:06:55;;;;;;;6.80;5.63;;;;;;;;;;5055960;28;20030;-74
2024/03/18 00:09:21;;;;;;;8.27;6.18;;;;;;;;;;5055604;28;20025;-72
2024/03/18 00:11:47;;;;;;;7.75;5.80;;;;;;;;;;5072765;28;20502;-72
2024/03/18 00:14:13;;;;;;;8.32;5.82;;;;;;;;;;5075033;28;20070;-72
2024/03/18 00:16:39;;;;;;;7.35;5.70;;;;;;;;;;5073310;28;20055;-73
2024/03/18 00:19:05;;;;;;;7.15;5.10;;;;;;;;;;5056017;28;20020;-74
2024/03/18 00:21:31;;;;;;;8.88;5.72;;;;;;;;;;5055074;28;20043;-73
2024/03/18 00:23:57;;;;;;;6.97;5.47;;;;;;;;;;5073289;28;20025;-72
2024/03/18 00:26:23;;;;;;;10.68;5.78;;;;;;;;;;5073611;28;20135;-72
2024/03/18 00:28:49;;;;;;;7.78;6.30;;;;;;;;;;5056931;28;20024;-73
2024/03/18 00:31:15;;;;;;;9.25;4.90;;;;;;;;;;5055193;28;20031;-73
2024/03/18 00:33:41;;;;;;;8.27;5.78;;;;;;;;;;5056182;28;20028;-73
2024/03/18 00:36:08;;;;;;;7.45;5.60;;;;;;;;;;5056221;28;20479;-73
2024/03/18 00:38:34;;;;;;;7.90;5.60;;;;;;;;;;5075468;28;20020;-74
2024/03/18 00:43:45;;;;;;;8.40;5.47;;;;;;;;;;5075742;28;20039;-74
2024/03/18 00:46:11;;;;;;;8.63;5.47;;;;;;;;;;5075406;28;20016;-74
2024/03/18 00:48:37;;;;;;;10.23;6.05;;;;;;;;;;5074331;28;20021;-74
2024/03/18 00:51:03;;;;;;;6.75;4.63;;;;;;;;;;5055425;28;20044;-74
2024/03/18 00:53:29;;;;;;;8.25;6.07;;;;;;;;;;5055187;28;20033;-74
2024/03/18 00:55:55;;;;;;;7.30;5.60;;;;;;;;;;5055358;28;20095;-74
2024/03/18 00:58:21;;;;;;;8.45;5.72;;;;;;;;;;5055241;28;20395;-73
2024/03/18 01:00:47;;;;;;;7.95;5.55;;;;;;;;;;5074018;28;20050;-74
2024/03/18 01:03:13;;;;;;;7.93;6.38;;;;;;;;;;5076673;28;20031;-74
2024/03/18 01:05:40;;;;;;;11.45;5.97;;;;;;;;;;5075528;28;20029;-74
2024/03/18 01:08:06;;;;;;;9.18;6.45;;;;;;;;;;5055814;28;20032;-73
2024/03/18 01:10:33;;;;;;;9.07;5.35;;;;;;;;;;5055187;28;20020;-73
2024/03/18 01:12:59;;;;;;;11.15;6.75;;;;;;;;;;5073017;28;20025;-74
2024/03/18 01:15:25;;;;;;;7.57;5.97;;;;;;;;;;5055215;28;20100;-73
2024/03/18 01:17:52;;;;;;;11.95;5.47;;;;;;;;;;5074608;28;20035;-72
2024/03/18 01:20:19;;;;;;;9.93;5.93;;;;;;;;;;5055291;28;20033;-72
2024/03/18 01:22:45;;;;;;;6.63;5.38;;;;;;;;;;5072520;28;20016;-74
2024/03/18 01:25:17;;;;;;;6.28;5.38;;;;;;;;;;5072858;28;20052;-75
2024/03/18 01:27:46;;;;;;;10.15;5.97;;;;;;;;;;5055016;28;20478;-74
2024/03/18 01:30:13;;;;;;;8.35;6.28;;;;;;;;;;5054281;28;20086;-74
2024/03/18 01:32:39;;;;;;;7.13;5.10;;;;;;;;;;5053734;28;20028;-73
2024/03/18 01:35:15;;;;;;;8.88;6.07;;;;;;;;;;5053791;28;20033;-73
2024/03/18 01:37:43;;;;;;;7.85;5.50;;;;;;;;;;5072591;28;20441;-74
2024/03/18 01:40:12;;;;;;;8.90;6.03;;;;;;;;;;5072658;28;20017;-73
2024/03/18 01:42:39;;;;;;;10.57;5.22;;;;;;;;;;5054462;28;20039;-74
2024/03/18 01:45:05;;;;;;;8.27;5.20;;;;;;;;;;5076651;28;20414;-73
2024/03/18 01:47:31;;;;;;;6.75;4.93;;;;;;;;;;5076526;28;20032;-73
2024/03/18 01:49:58;;;;;;;9.18;5.18;;;;;;;;;;5059153;28;20020;-74
2024/03/18 01:52:24;;;;;;;6.75;5.60;;;;;;;;;;5058094;28;20024;-72
2024/03/18 01:54:51;;;;;;;7.78;5.65;;;;;;;;;;5058413;28;20037;-73
2024/03/18 01:57:17;;;;;;;8.73;5.70;;;;;;;;;;5076617;28;20440;-74
2024/03/18 01:59:44;;;;;;;10.73;5.90;;;;;;;;;;5080381;28;20035;-73
2024/03/18 02:02:13;;;;;;;6.65;5.13;;;;;;;;;;5062136;28;20021;-73
2024/03/18 02:04:40;;;;;;;9.10;5.85;;;;;;;;;;5058936;28;20028;-74
2024/03/18 02:07:22;;;;;;;8.10;5.57;;;;;;;;;;5075063;28;20024;-74
2024/03/18 02:09:49;;;;;;;7.35;5.18;;;;;;;;;;5057749;28;20029;-74
2024/03/18 02:12:15;;;;;;;10.98;6.25;;;;;;;;;;5056843;28;20029;-73
2024/03/18 02:14:44;;;;;;;7.25;6.18;;;;;;;;;;5075125;28;20032;-74
2024/03/18 02:17:10;;;;;;;7.38;5.20;;;;;;;;;;5074251;28;20019;-72
2024/03/18 02:19:36;;;;;;;6.85;5.20;;;;;;;;;;5077627;28;20123;-73
2024/03/18 02:22:05;;;;;;;6.50;4.60;;;;;;;;;;5092038;28;20016;-73
2024/03/18 02:24:31;;;;;;;7.00;5.55;;;;;;;;;;5078173;28;20020;-73
2024/03/18 02:27:04;;;;;;;6.90;5.05;;;;;;;;;;5072748;28;20025;-74
2024/03/18 02:29:30;;;;;;;6.15;4.80;;;;;;;;;;5091533;28;20035;-74
2024/03/18 02:31:56;;;;;;;7.35;5.30;;;;;;;;;;5067935;28;20020;-73
2024/03/18 02:34:22;;;;;;;6.20;4.65;;;;;;;;;;5079683;28;20085;-74
2024/03/18 02:36:48;;;;;;;9.15;5.22;;;;;;;;;;5092352;28;20028;-73
2024/03/18 02:39:14;;;;;;;7.85;5.55;;;;;;;;;;5074559;28;20023;-73
2024/03/18 02:41:41;;;;;;;9.45;6.32;;;;;;;;;;5072154;28;20467;-72
2024/03/18 02:44:11;;;;;;;8.52;5.22;;;;;;;;;;5070520;28;20021;-74
2024/03/18 02:46:37;;;;;;;6.88;5.47;;;;;;;;;;5090136;28;20127;-74
2024/03/18 02:49:04;;;;;;;9.13;5.55;;;;;;;;;;5073455;28;20024;-74
2024/03/18 02:51:30;;;;;;;8.63;5.30;;;;;;;;;;5066324;28;20040;-74
2024/03/18 02:53:56;;;;;;;8.07;5.28;;;;;;;;;;5092983;28;20032;-73
2024/03/18 02:56:22;;;;;;;6.95;5.40;;;;;;;;;;5085772;28;20031;-73
2024/03/18 02:58:48;;;;;;;9.30;5.55;;;;;;;;;;5090460;28;20027;-73
2024/03/18 03:01:14;;;;;;;6.63;4.95;;;;;;;;;;5072557;28;20024;-74
2024/03/18 03:03:40;;;;;;;7.38;5.70;;;;;;;;;;5073049;28;20105;-75
2024/03/18 03:06:09;;;;;;;8.13;5.40;;;;;;;;;;5076632;28;20093;-74
2024/03/18 03:08:36;;;;;;;9.65;5.90;;;;;;;;;;5064810;28;20028;-74
2024/03/18 03:11:06;;;;;;;9.57;6.38;;;;;;;;;;5057863;28;20025;-72
2024/03/18 03:13:32;;;;;;;7.47;5.97;;;;;;;;;;5073171;28;20056;-71
2024/03/18 03:15:58;;;;;;;8.88;6.72;;;;;;;;;;5063198;28;20035;-74
2024/03/18 03:18:24;;;;;;;10.60;6.78;;;;;;;;;;5068797;28;20025;-72
2024/03/18 03:20:52;;;;;;;8.50;6.20;;;;;;;;;;5054212;28;20513;-74
2024/03/18 03:23:20;;;;;;;9.32;7.22;;;;;;;;;;5062502;28;20070;-73
2024/03/18 03:25:48;;;;;;;9.52;6.60;;;;;;;;;;5063898;28;20032;-71
2024/03/18 03:28:14;;;;;;;10.07;6.72;;;;;;;;;;5092702;28;20031;-74
2024/03/18 03:30:40;;;;;;;10.57;7.63;;;;;;;;;;5066219;28;20361;-73
2024/03/18 03:33:08;;;;;;;8.68;6.57;;;;;;;;;;5085464;28;20107;-74
2024/03/18 03:35:34;;;;;;;11.77;7.32;;;;;;;;;;5073203;28;20108;-73
2024/03/18 03:38:00;;;;;;;10.90;6.47;;;;;;;;;;5073901;28;20051;-74
2024/03/18 03:40:27;;;;;;;8.23;6.18;;;;;;;;;;5069718;28;20143;-74
2024/03/18 03:42:53;;;;;;;8.13;7.07;;;;;;;;;;5071862;28;20536;-72
2024/03/18 03:45:24;;;;;;;7.82;6.20;;;;;;;;;;5072969;28;20045;-73
2024/03/18 03:47:50;;;;;;;8.40;6.38;;;;;;;;;;5062202;28;20029;-75
2024/03/18 03:50:16;;;;;;;10.18;6.38;;;;;;;;;;5071838;28;20048;-74
2024/03/18 03:52:42;;;;;;;9.38;7.30;;;;;;;;;;5091263;28;20036;-73
2024/03/18 03:55:08;;;;;;;12.38;7.18;;;;;;;;;;5063933;28;20486;-74
2024/03/18 03:57:34;;;;;;;10.07;6.50;;;;;;;;;;5057576;28;20119;-73
2024/03/18 04:00:02;;;;;;;10.55;6.30;;;;;;;;;;5088588;28;20020;-73
2024/03/18 04:02:28;;;;;;;9.25;6.60;;;;;;;;;;5076911;28;20089;-73
2024/03/18 04:04:59;;;;;;;7.72;6.40;;;;;;;;;;5077799;28;20082;-72
2024/03/18 04:07:26;;;;;;;8.55;6.40;;;;;;;;;;5061430;28;20056;-72
2024/03/18 04:09:52;;;;;;;8.23;6.45;;;;;;;;;;5059470;28;20556;-73
2024/03/18 04:12:18;;;;;;;10.60;7.25;;;;;;;;;;5057260;28;20032;-73
2024/03/18 04:14:45;;;;;;;16.17;7.60;;;;;;;;;;5070032;28;20510;-73
2024/03/18 04:17:12;;;;;;;10.30;7.13;;;;;;;;;;5075360;28;20025;-74
2024/03/18 04:19:38;;;;;;;10.40;7.22;;;;;;;;;;5075796;28;20229;-73
2024/03/18 04:22:04;;;;;;;10.05;6.07;;;;;;;;;;5073887;28;21032;-72
2024/03/18 04:24:31;;;;;;;10.20;6.63;;;;;;;;;;5057807;28;20024;-73
2024/03/18 04:26:57;;;;;;;7.57;6.47;;;;;;;;;;5076258;28;20031;-72
2024/03/18 04:29:23;;;;;;;7.30;5.95;;;;;;;;;;5079981;28;20039;-73
2024/03/18 04:31:49;;;;;;;8.45;6.00;;;;;;;;;;5071918;28;20032;-72
2024/03/18 04:34:15;;;;;;;8.27;5.88;;;;;;;;;;5079588;28;20119;-72
2024/03/18 04:36:41;;;;;;;9.63;7.30;;;;;;;;;;5061365;28;20017;-73
2024/03/18 04:39:08;;;;;;;12.98;7.15;;;;;;;;;;5057769;28;20052;-72
2024/03/18 04:41:36;;;;;;;11.63;6.95;;;;;;;;;;5076627;28;20021;-74
2024/03/18 04:44:02;;;;;;;10.68;6.50;;;;;;;;;;5093702;28;20032;-74
2024/03/18 04:46:29;;;;;;;10.30;6.53;;;;;;;;;;5058200;28;20150;-73
2024/03/18 04:48:55;;;;;;;11.63;6.82;;;;;;;;;;5080964;28;20520;-74
2024/03/18 04:51:21;;;;;;;13.55;6.80;;;;;;;;;;5056955;28;20147;-75
2024/03/18 04:53:47;;;;;;;8.38;6.85;;;;;;;;;;5060602;28;20055;-73
2024/03/18 04:56:13;;;;;;;11.63;6.43;;;;;;;;;;5056643;28;20379;-73
2024/03/18 04:58:39;;;;;;;10.15;6.47;;;;;;;;;;5074317;28;20386;-74
2024/03/18 05:01:05;;;;;;;8.48;6.90;;;;;;;;;;5072176;28;20021;-73
2024/03/18 05:03:31;;;;;;;7.80;6.28;;;;;;;;;;5076435;28;20012;-73
2024/03/18 05:05:57;;;;;;;11.95;6.00;;;;;;;;;;5079056;28;20024;-74
2024/03/18 05:08:23;;;;;;;11.63;5.90;;;;;;;;;;5097796;28;20028;-74
2024/03/18 05:10:49;;;;;;;7.80;5.88;;;;;;;;;;5088026;28;20032;-73
2024/03/18 05:13:15;;;;;;;11.73;6.93;;;;;;;;;;5059722;28;20035;-73
2024/03/18 05:15:41;;;;;;;6.88;6.18;;;;;;;;;;5074802;28;20028;-75
2024/03/18 05:18:07;;;;;;;11.82;6.60;;;;;;;;;;5073091;28;20443;-74
2024/03/18 05:20:34;;;;;;;7.90;5.93;;;;;;;;;;5055363;28;20051;-72
2024/03/18 05:23:00;;;;;;;10.23;5.85;;;;;;;;;;5055361;28;20027;-74
2024/03/18 05:25:26;;;;;;;11.90;6.55;;;;;;;;;;5093441;28;20502;-73
2024/03/18 05:27:52;;;;;;;8.27;5.65;;;;;;;;;;5065126;28;20390;-73
2024/03/18 05:30:18;;;;;;;10.82;6.32;;;;;;;;;;5072968;28;20052;-73
2024/03/18 05:32:44;;;;;;;8.02;5.80;;;;;;;;;;5072040;28;20418;-73
2024/03/18 05:35:10;;;;;;;7.47;6.03;;;;;;;;;;5078479;28;20032;-74
2024/03/18 05:37:37;;;;;;;12.65;7.60;;;;;;;;;;5088130;28;20020;-73
2024/03/18 05:40:04;;;;;;;14.15;7.70;;;;;;;;;;5079320;28;20081;-72
2024/03/18 05:42:31;;;;;;;9.50;6.32;;;;;;;;;;5064724;28;20076;-74
2024/03/18 05:44:57;;;;;;;9.50;6.05;;;;;;;;;;5083521;28;20031;-74
2024/03/18 05:47:23;;;;;;;8.18;6.43;;;;;;;;;;5087414;28;20058;-73
2024/03/18 05:49:49;;;;;;;12.00;6.78;;;;;;;;;;5063035;28;20021;-74
2024/03/18 05:52:16;;;;;;;11.90;6.80;;;;;;;;;;5079207;28;20043;-73
2024/03/18 05:54:42;;;;;;;6.53;5.63;;;;;;;;;;5082864;28;20347;-73
2024/03/18 05:57:09;;;;;;;8.93;6.88;;;;;;;;;;5083173;28;20021;-74
2024/03/18 05:59:35;;;;;;;12.02;6.28;;;;;;;;;;5083819;28;20483;-74
2024/03/18 06:02:01;;;;;;;9.68;6.03;;;;;;;;;;5084481;28;20089;-74
2024/03/18 06:04:27;;;;;;;7.82;5.97;;;;;;;;;;5082976;28;20024;-74
2024/03/18 06:06:53;;;;;;;12.93;6.88;;;;;;;;;;5086835;28;20074;-74
2024/03/18 06:09:20;;;;;;;8.68;6.20;;;;;;;;;;5077394;28;20570;-73
2024/03/18 06:11:46;;;;;;;9.85;5.93;;;;;;;;;;5081506;28;20103;-74
2024/03/18 06:14:13;;;;;;;12.15;6.63;;;;;;;;;;5080428;28;20483;-73
2024/03/18 06:16:39;;;;;;;8.40;6.00;;;;;;;;;;5072843;28;20032;-73
2024/03/18 06:19:06;;;;;;;15.93;5.97;;;;;;;;;;5090207;28;20095;-73
2024/03/18 06:21:39;;;;;;;10.15;6.50;;;;;;;;;;5093606;28;20103;-73
2024/03/18 06:24:09;;;;;;;8.73;5.68;;;;;;;;;;5088826;28;20069;-72
2024/03/18 06:26:35;;;;;;;11.63;6.53;;;;;;;;;;5090823;28;20399;-71
2024/03/18 06:29:01;;;;;;;10.20;7.00;;;;;;;;;;5090986;28;20028;-74
2024/03/18 06:31:27;;;;;;;11.88;5.82;;;;;;;;;;5072620;28;20312;-70
2024/03/18 06:33:54;;;;;;;8.27;5.40;;;;;;;;;;5071106;28;20023;-72
2024/03/18 06:36:20;;;;;;;10.65;6.68;;;;;;;;;;5082148;28;20107;-70
2024/03/18 06:38:46;;;;;;;13.48;6.75;;;;;;;;;;5077477;28;20039;-73
2024/03/18 06:41:13;;;;;;;8.90;6.43;;;;;;;;;;5089073;28;20030;-74
2024/03/18 06:43:39;;;;;;;15.75;6.72;;;;;;;;;;5072798;28;20052;-72
2024/03/18 06:46:06;;;;;;;9.43;6.65;;;;;;;;;;5074708;28;20390;-73
2024/03/18 06:48:35;;;;;;;12.75;7.45;;;;;;;;;;5069006;28;20028;-73
2024/03/18 06:51:01;;;;;;;15.68;7.88;;;;;;;;;;5073747;28;20028;-72
2024/03/18 06:53:27;;;;;;;32.42;8.63;;;;;;;;;;5060124;28;20146;-73
2024/03/18 06:55:53;;;;;;;18.58;8.90;;;;;;;;;;5072585;28;20036;-72
2024/03/18 06:58:24;;;;;;;15.90;8.40;;;;;;;;;;5091750;28;20406;-71
2024/03/18 07:00:50;;;;;;;15.63;8.13;;;;;;;;;;5073066;28;20048;-72
2024/03/18 07:03:16;;;;;;;11.48;7.13;;;;;;;;;;5079253;28;20025;-73
2024/03/18 07:05:42;;;;;;;16.75;8.00;;;;;;;;;;5072356;28;20113;-72
2024/03/18 07:08:08;;;;;;;10.90;7.20;;;;;;;;;;5053882;28;20293;-74
2024/03/18 07:10:34;;;;;;;13.52;9.07;;;;;;;;;;5072547;28;20024;-73
2024/03/18 07:13:00;;;;;;;10.55;7.57;;;;;;;;;;5054075;28;20348;-72
2024/03/18 07:15:26;;;;;;;12.65;7.90;;;;;;;;;;5053605;28;20475;-73
2024/03/18 07:17:53;;;;;;;10.30;8.07;;;;;;;;;;5083598;28;20020;-71
2024/03/18 07:20:19;;;;;;;11.00;7.60;;;;;;;;;;5071783;28;20039;-74
2024/03/18 07:22:45;;;;;;;14.80;8.38;;;;;;;;;;5089319;28;20454;-74
2024/03/18 07:25:11;;;;;;;10.20;7.65;;;;;;;;;;5073080;28;20479;-73
2024/03/18 07:27:38;;;;;;;8.77;7.55;;;;;;;;;;5090990;28;20039;-73
2024/03/18 07:30:05;;;;;;;17.85;8.00;;;;;;;;;;5053866;28;20487;-73
2024/03/18 07:32:31;;;;;;;9.45;7.18;;;;;;;;;;5074327;28;20363;-73
2024/03/18 07:34:57;;;;;;;15.85;8.73;;;;;;;;;;5074835;28;20040;-72
2024/03/18 07:37:23;;;;;;;14.18;8.55;;;;;;;;;;5076921;28;20105;-72
2024/03/18 07:39:49;;;;;;;10.13;8.27;;;;;;;;;;5062630;28;20481;-72
2024/03/18 07:42:16;;;;;;;10.95;7.85;;;;;;;;;;5069375;28;20024;-72
2024/03/18 07:44:42;;;;;;;10.40;8.70;;;;;;;;;;5073141;28;20044;-72
2024/03/18 07:47:09;;;;;;;11.52;8.30;;;;;;;;;;5073966;28;20144;-74
2024/03/18 07:49:42;;;;;;;12.30;8.20;;;;;;;;;;5061208;28;20096;-71
2024/03/18 07:52:08;;;;;;;11.02;7.32;;;;;;;;;;5074902;28;20093;-74
2024/03/18 07:54:34;;;;;;;10.82;7.85;;;;;;;;;;5057697;28;20075;-73
2024/03/18 07:57:01;;;;;;;12.07;7.43;;;;;;;;;;5069953;28;20024;-74
2024/03/18 07:59:27;;;;;;;10.82;7.35;;;;;;;;;;5076978;28;20024;-74
2024/03/18 08:01:53;;;;;;;9.40;7.63;;;;;;;;;;5073103;28;20096;-75
2024/03/18 08:04:19;;;;;;;11.85;7.68;;;;;;;;;;5085504;28;20063;-76
2024/03/18 08:06:46;;;;;;;10.77;7.85;;;;;;;;;;5081793;28;20024;-76
2024/03/18 08:09:16;;;;;;;8.63;7.38;;;;;;;;;;5072551;28;20129;-74
2024/03/18 08:11:42;;;;;;;14.52;8.30;;;;;;;;;;5091662;28;20103;-76
2024/03/18 08:14:09;;;;;;;10.77;7.65;;;;;;;;;;5074000;28;20591;-75
2024/03/18 08:16:35;;;;;;;12.52;8.35;;;;;;;;;;5086701;28;20019;-75
2024/03/18 08:19:03;;;;;;;11.90;8.13;;;;;;;;;;5092270;28;20024;-74
2024/03/18 08:21:29;;;;;;;11.85;9.05;;;;;;;;;;5083323;28;20025;-74
2024/03/18 08:23:55;;;;;;;18.30;8.98;;;;;;;;;;5073762;28;20016;-75
2024/03/18 08:26:21;;;;;;;12.45;9.98;;;;;;;;;;5057286;28;20024;-73
2024/03/18 08:28:47;;;;;;;11.32;8.73;;;;;;;;;;5079061;28;20036;-74
2024/03/18 08:31:13;;;;;;;10.25;8.05;;;;;;;;;;5081557;28;20028;-72
2024/03/18 08:33:40;;;;;;;11.93;8.10;;;;;;;;;;5068801;28;20032;-72
2024/03/18 08:36:06;;;;;;;13.65;8.68;;;;;;;;;;5072683;28;20123;-73
2024/03/18 08:38:33;;;;;;;13.77;8.98;;;;;;;;;;5085557;28;20055;-73
2024/03/18 08:40:59;;;;;;;9.85;7.20;;;;;;;;;;5078804;28;20025;-73
2024/03/18 08:43:25;;;;;;;13.00;8.90;;;;;;;;;;5086108;28;20024;-72
2024/03/18 08:45:54;;;;;;;14.55;9.05;;;;;;;;;;5085383;28;20031;-73
2024/03/18 08:48:21;;;;;;;8.98;7.78;;;;;;;;;;5069512;28;20032;-74
2024/03/18 08:50:47;;;;;;;10.00;8.02;;;;;;;;;;5073056;28;20024;-73
2024/03/18 08:53:14;;;;;;;13.45;8.80;;;;;;;;;;5073154;28;20259;-73
2024/03/18 08:55:40;;;;;;;11.02;7.93;;;;;;;;;;5088056;28;20031;-73
2024/03/18 08:58:06;;;;;;;17.17;8.68;;;;;;;;;;5070204;28;20020;-73
2024/03/18 09:00:33;;;;;;;12.50;8.95;;;;;;;;;;5065355;28;20042;-71
2024/03/18 09:02:59;;;;;;;13.25;8.93;;;;;;;;;;5085284;28;20016;-72
2024/03/18 09:05:25;;;;;;;16.17;9.40;;;;;;;;;;5070789;28;20150;-71
2024/03/18 09:07:51;;;;;;;16.02;9.20;;;;;;;;;;5086672;28;20051;-74
2024/03/18 09:10:17;;;;;;;12.20;9.00;;;;;;;;;;5078701;28;20032;-73
2024/03/18 09:12:43;;;;;;;12.73;9.10;;;;;;;;;;5083360;28;20024;-72
2024/03/18 09:15:10;;;;;;;15.13;10.05;;;;;;;;;;5088061;28;20028;-73
2024/03/18 09:17:36;;;;;;;11.55;8.70;;;;;;;;;;5081666;28;20025;-73
2024/03/18 09:20:04;;;;;;;10.50;8.30;;;;;;;;;;5085606;28;20028;-73
2024/03/18 09:22:30;;;;;;;12.40;8.73;;;;;;;;;;5088632;28;20099;-74
2024/03/18 09:24:56;;;;;;;15.15;9.60;;;;;;;;;;5080138;28;20056;-74
2024/03/18 09:27:22;;;;;;;15.52;8.95;;;;;;;;;;5070558;28;20028;-73
2024/03/18 09:29:49;;;;;;;14.75;8.80;;;;;;;;;;5088412;28;20062;-73
2024/03/18 09:32:15;;;;;;;16.50;8.88;;;;;;;;;;5087657;28;20478;-73
2024/03/18 09:34:42;;;;;;;10.43;9.27;;;;;;;;;;5084029;28;20406;-72
2024/03/18 09:37:08;;;;;;;14.63;9.35;;;;;;;;;;5065894;28;20475;-72
2024/03/18 09:39:36;;;;;;;12.57;9.35;;;;;;;;;;5087939;28;20028;-72
2024/03/18 09:42:02;;;;;;;13.65;9.98;;;;;;;;;;5083104;28;20016;-73
2024/03/18 09:44:29;;;;;;;14.15;9.32;;;;;;;;;;5088169;28;20024;-72
2024/03/18 09:46:55;;;;;;;17.75;10.35;;;;;;;;;;5063085;28;20028;-73
2024/03/18 09:49:22;;;;;;;10.02;8.75;;;;;;;;;;5068809;28;20039;-73
2024/03/18 09:51:49;;;;;;;13.32;8.90;;;;;;;;;;5078587;28;20514;-72
2024/03/18 09:54:16;;;;;;;18.15;9.50;;;;;;;;;;5088508;28;20059;-74
2024/03/18 09:56:44;;;;;;;14.50;9.68;;;;;;;;;;5071792;28;20486;-74
2024/03/18 09:59:11;;;;;;;14.15;9.30;;;;;;;;;;5085583;28;20381;-72
2024/03/18 10:01:37;;;;;;;17.00;9.93;;;;;;;;;;5077306;28;20374;-72
2024/03/18 10:04:04;;;;;;;11.95;9.15;;;;;;;;;;5088444;28;20047;-73
2024/03/18 10:06:33;;;;;;;13.60;10.18;;;;;;;;;;5082911;28;20026;-71
2024/03/18 10:08:59;;;;;;;17.55;10.43;;;;;;;;;;5072687;28;20016;-73
2024/03/18 10:11:25;;;;;;;17.20;10.60;;;;;;;;;;5072446;28;20048;-72
2024/03/18 10:13:51;;;;;;;14.35;9.88;;;;;;;;;;5072705;28;20376;-73
2024/03/18 10:16:18;;;;;;;14.57;10.35;;;;;;;;;;5072569;28;20107;-71
2024/03/18 10:18:45;;;;;;;16.42;9.93;;;;;;;;;;5073960;28;20040;-72
2024/03/18 10:21:12;;;;;;;17.00;10.23;;;;;;;;;;5074284;28;20052;-71
2024/03/18 10:23:40;;;;;;;14.90;9.93;;;;;;;;;;5066971;28;20094;-71
2024/03/18 10:26:07;;;;;;;14.13;10.32;;;;;;;;;;5084223;28;20451;-72
2024/03/18 10:28:34;;;;;;;18.25;10.63;;;;;;;;;;5089591;28;20039;-73
2024/03/18 10:31:01;;;;;;;15.05;9.20;;;;;;;;;;5070650;28;20048;-74
2024/03/18 10:33:27;;;;;;;19.73;10.55;;;;;;;;;;5077734;28;20056;-73
2024/03/18 10:35:55;;;;;;;15.48;10.07;;;;;;;;;;5056101;28;20055;-72
2024/03/18 10:38:26;;;;;;;15.07;9.35;;;;;;;;;;5072134;28;20097;-71
2024/03/18 10:40:55;;;;;;;13.65;10.18;;;;;;;;;;5072737;28;20047;-71
2024/03/18 10:43:32;;;;;;;17.98;10.80;;;;;;;;;;5075116;28;20401;-72
2024/03/18 10:45:59;;;;;;;20.52;10.98;;;;;;;;;;5060904;28;20101;-72
2024/03/18 10:48:26;;;;;;;20.00;9.40;;;;;;;;;;5066553;28;20025;-74
2024/03/18 10:50:53;;;;;;;18.95;10.25;;;;;;;;;;5071930;28;20028;-72
2024/03/18 10:53:21;;;;;;;19.90;10.65;;;;;;;;;;5055451;28;20128;-73
2024/03/18 10:55:55;;;;;;;21.65;10.27;;;;;;;;;;5075072;28;20114;-73
2024/03/18 10:58:22;;;;;;;14.77;10.73;;;;;;;;;;5091789;28;20024;-73
2024/03/18 11:00:48;;;;;;;13.48;9.93;;;;;;;;;;5073173;28;20024;-74
2024/03/18 11:03:15;;;;;;;20.13;10.23;;;;;;;;;;5072319;28;20020;-74
2024/03/18 11:05:47;;;;;;;17.67;10.55;;;;;;;;;;5073301;28;20451;-73
2024/03/18 11:08:15;;;;;;;12.60;9.63;;;;;;;;;;5075023;28;20097;-74
2024/03/18 11:10:41;;;;;;;15.43;10.80;;;;;;;;;;5075640;28;20059;-75
2024/03/18 11:13:33;;;;;;;15.52;9.40;;;;;;;;;;5088546;28;20093;-74
2024/03/18 11:16:04;;;;;;;16.95;10.90;;;;;;;;;;5064474;28;20139;-74
2024/03/18 11:18:32;;;;;;;16.65;10.27;;;;;;;;;;5075333;28;20016;-74
2024/03/18 11:20:59;;;;;;;14.55;9.20;;;;;;;;;;5075193;28;20016;-73
2024/03/18 11:23:26;;;;;;;14.57;9.32;;;;;;;;;;5093908;28;20024;-75
2024/03/18 11:25:56;;;;;;;15.15;10.40;;;;;;;;;;5082874;28;20024;-74
2024/03/18 11:28:32;;;;;;;13.32;10.82;;;;;;;;;;5071041;28;20276;-74
2024/03/18 11:30:59;;;;;;;16.63;9.63;;;;;;;;;;5088274;28;20210;-72
2024/03/18 11:33:27;;;;;;;15.35;9.75;;;;;;;;;;5088355;28;20088;-74
2024/03/18 11:35:53;;;;;;;15.82;8.35;;;;;;;;;;5073174;28;20283;-74
2024/03/18 11:38:19;;;;;;;13.90;9.15;;;;;;;;;;5072002;28;20024;-71
2024/03/18 11:40:46;;;;;;;15.18;7.45;;;;;;;;;;5093180;28;20020;-70
2024/03/18 11:43:12;;;;;;;12.05;9.10;;;;;;;;;;5076404;28;20019;-71
2024/03/18 11:45:38;;;;;;;18.05;10.90;;;;;;;;;;5087033;28;20028;-70
2024/03/18 11:48:05;;;;;;;18.75;10.48;;;;;;;;;;5095769;28;20500;-72
2024/03/18 11:50:33;;;;;;;13.32;9.68;;;;;;;;;;5096511;28;20024;-70
2024/03/18 11:53:00;;;;;;;13.25;10.20;;;;;;;;;;5094603;28;20032;-72
2024/03/18 11:55:27;;;;;;;14.70;10.38;;;;;;;;;;5095177;28;20433;-70
2024/03/18 11:57:56;;;;;;;13.10;9.93;;;;;;;;;;5091545;28;20028;-70
2024/03/18 12:00:22;;;;;;;17.42;11.57;;;;;;;;;;5074262;28;20471;-71
2024/03/18 12:02:48;;;;;;;15.18;10.32;;;;;;;;;;5091344;28;20077;-71
2024/03/18 12:05:14;;;;;;;14.23;10.32;;;;;;;;;;5081413;28;20024;-71
2024/03/18 12:07:40;;;;;;;19.05;10.55;;;;;;;;;;5072669;28;20450;-70
2024/03/18 12:10:07;;;;;;;12.32;10.05;;;;;;;;;;5083371;28;20035;-71
2024/03/18 12:12:37;;;;;;;17.63;11.63;;;;;;;;;;5074510;28;20044;-71
2024/03/18 12:15:04;;;;;;;19.38;11.40;;;;;;;;;;5093356;28;20497;-71
2024/03/18 12:17:31;;;;;;;13.27;11.27;;;;;;;;;;5076848;28;20028;-69
2024/03/18 12:20:00;;;;;;;16.02;12.18;;;;;;;;;;5075851;28;20498;-71
2024/03/18 12:22:30;;;;;;;13.75;10.52;;;;;;;;;;5071616;28;20028;-71
2024/03/18 12:28:32;;;;;;;17.58;11.38;;;;;;;;;;5097287;28;20051;-71
2024/03/18 12:30:35;;;;;;;17.23;12.07;;;;;;;;;;5079314;28;20040;-71
2024/03/18 12:33:05;;;;;;;17.90;11.18;;;;;;;;;;5093557;28;20027;-71
2024/03/18 12:35:32;;;;;;;17.03;11.77;;;;;;;;;;5093833;28;20499;-71
2024/03/18 12:37:58;;;;;;;14.23;10.73;;;;;;;;;;5075065;28;20024;-71
2024/03/18 12:40:25;;;;;;;14.43;10.63;;;;;;;;;;5085637;28;20485;-69
2024/03/18 12:42:52;;;;;;;16.38;11.73;;;;;;;;;;5071920;28;20202;-72
2024/03/18 12:45:19;;;;;;;15.45;11.27;;;;;;;;;;5072371;28;20025;-72
2024/03/18 12:47:48;;;;;;;14.15;10.52;;;;;;;;;;5072170;28;20039;-72
2024/03/18 12:50:16;;;;;;;17.20;10.85;;;;;;;;;;5082706;28;20028;-70
2024/03/18 12:52:42;;;;;;;15.38;9.75;;;;;;;;;;5063781;28;20357;-72
2024/03/18 12:55:10;;;;;;;19.73;11.52;;;;;;;;;;5079708;28;20028;-71
2024/03/18 12:57:38;;;;;;;16.50;11.85;;;;;;;;;;5080714;28;20497;-71
2024/03/18 13:00:09;;;;;;;16.30;10.77;;;;;;;;;;5066319;28;20028;-72
2024/03/18 13:02:35;;;;;;;12.45;10.40;;;;;;;;;;5079528;28;20012;-69
2024/03/18 13:05:02;;;;;;;15.98;10.93;;;;;;;;;;5068176;28;20502;-71
2024/03/18 13:07:28;;;;;;;17.25;10.30;;;;;;;;;;5072329;28;20454;-71
2024/03/18 13:09:54;;;;;;;14.63;10.73;;;;;;;;;;5072332;28;20056;-70
2024/03/18 13:12:20;;;;;;;15.15;10.77;;;;;;;;;;5080725;28;20025;-70
2024/03/18 13:14:46;;;;;;;16.00;11.57;;;;;;;;;;5081774;28;20068;-70
2024/03/18 13:17:13;;;;;;;14.68;11.45;;;;;;;;;;5070768;28;20024;-71
2024/03/18 13:19:39;;;;;;;15.48;10.90;;;;;;;;;;5078008;28;20023;-73
2024/03/18 13:22:05;;;;;;;14.30;11.27;;;;;;;;;;5090802;28;20062;-70
2024/03/18 13:24:31;;;;;;;16.20;10.70;;;;;;;;;;5081651;28;20020;-71
2024/03/18 13:27:00;;;;;;;13.95;10.45;;;;;;;;;;5085305;28;20031;-72
2024/03/18 13:29:31;;;;;;;15.30;10.65;;;;;;;;;;5085818;28;20521;-71
2024/03/18 13:31:57;;;;;;;16.80;9.13;;;;;;;;;;5086284;28;20024;-72
2024/03/18 13:34:23;;;;;;;18.00;9.52;;;;;;;;;;5070619;28;20028;-72
2024/03/18 13:36:49;;;;;;;13.18;10.20;;;;;;;;;;5070443;28;20024;-72
2024/03/18 13:39:17;;;;;;;15.80;9.20;;;;;;;;;;5069600;28;20020;-72
2024/03/18 13:41:44;;;;;;;14.38;9.13;;;;;;;;;;5078245;28;20276;-71
2024/03/18 13:44:10;;;;;;;13.88;8.90;;;;;;;;;;5082940;28;20020;-71
2024/03/18 13:46:36;;;;;;;9.60;7.93;;;;;;;;;;5069962;28;20058;-74
2024/03/18 13:49:04;;;;;;;13.75;7.88;;;;;;;;;;5076021;28;20440;-76
2024/03/18 13:51:32;;;;;;;11.73;8.25;;;;;;;;;;5081503;28;20112;-75
2024/03/18 13:53:59;;;;;;;11.77;8.65;;;;;;;;;;5089268;28;20494;-75
2024/03/18 13:56:25;;;;;;;11.32;7.25;;;;;;;;;;5078703;28;20028;-75
2024/03/18 13:58:51;;;;;;;10.18;8.10;;;;;;;;;;5091188;28;20042;-75
2024/03/18 14:01:17;;;;;;;8.32;7.18;;;;;;;;;;5067324;28;20035;-75
2024/03/18 14:03:43;;;;;;;9.65;6.22;;;;;;;;;;5093789;28;20016;-74
2024/03/18 14:06:10;;;;;;;12.20;7.30;;;;;;;;;;5069051;28;20043;-72
2024/03/18 14:08:36;;;;;;;7.70;6.82;;;;;;;;;;5084522;28;20033;-71
2024/03/18 14:11:03;;;;;;;11.10;7.40;;;;;;;;;;5079634;28;20029;-69
2024/03/18 14:13:29;;;;;;;9.40;7.15;;;;;;;;;;5083307;28;20035;-73
2024/03/18 14:15:56;;;;;;;11.27;7.75;;;;;;;;;;5069902;28;20573;-71
2024/03/18 14:18:25;;;;;;;19.50;10.23;;;;;;;;;;5070895;28;20122;-70
2024/03/18 14:20:52;;;;;;;14.38;9.20;;;;;;;;;;5070687;28;20444;-71
2024/03/18 14:23:18;;;;;;;12.02;9.57;;;;;;;;;;5072850;28;20031;-70
2024/03/18 14:25:44;;;;;;;18.23;10.13;;;;;;;;;;5090704;28;20028;-70
2024/03/18 14:28:11;;;;;;;10.80;8.70;;;;;;;;;;5089988;28;20024;-72
2024/03/18 14:30:37;;;;;;;10.80;9.23;;;;;;;;;;5071815;28;20027;-71
2024/03/18 14:33:04;;;;;;;11.95;9.57;;;;;;;;;;5089559;28;20211;-71
2024/03/18 14:35:30;;;;;;;11.75;9.50;;;;;;;;;;5071918;28;20051;-72